Time;durP1;ratioP1;P1;durP2;ratioP2;P2;SDS_P1;SDS_P2;PMS_P1;PMS_P2;Temp;Humidity;BMP_temperature;BMP_pressure;BME280_temperature;BME280_humidity;BME280_pressure;Samples;Min_cycle;Max_cycle;Signal;HPM_P1;HPM_P2
2021/11/30 00:00:58;;;;;;;14.85;10.88;;;;;;;3.26;93.96;99258.55;2971246;80;21028;-81
2021/11/30 00:05:00;;;;;;;17.02;11.28;;;;;;;3.23;93.92;99258.27;2971304;80;21035;-83
2021/11/30 00:09:20;;;;;;;18.40;11.53;;;;;;;3.32;93.67;99263.38;2970964;80;20988;-81
2021/11/30 00:13:18;;;;;;;20.92;12.47;;;;;;;3.28;93.89;99264.53;2969963;80;21071;-80
2021/11/30 00:17:21;;;;;;;21.97;11.28;;;;;;;3.27;93.76;99258.42;2969880;80;21009;-69
2021/11/30 00:21:23;;;;;;;17.12;10.95;;;;;;;3.32;93.72;99270.41;2971272;80;21523;-82
2021/11/30 00:25:25;;;;;;;14.15;8.65;;;;;;;3.37;93.20;99269.16;2971056;80;20996;-81
2021/11/30 00:29:26;;;;;;;17.55;11.80;;;;;;;3.32;92.69;99267.78;2971305;80;21643;-78
2021/11/30 00:33:28;;;;;;;10.03;8.33;;;;;;;3.20;91.85;99274.25;2971414;80;21051;-82
2021/11/30 00:37:30;;;;;;;9.60;8.13;;;;;;;3.13;90.76;99275.59;2971122;80;21012;-83
2021/11/30 00:41:32;;;;;;;14.30;7.70;;;;;;;3.17;90.97;99289.38;2971129;80;20945;-83
2021/11/30 00:45:41;;;;;;;12.45;8.13;;;;;;;3.02;91.30;99289.94;2970928;80;21079;-82
2021/11/30 00:49:40;;;;;;;14.73;8.80;;;;;;;3.07;91.58;99287.84;2969795;80;21024;-80
2021/11/30 00:53:43;;;;;;;18.75;8.85;;;;;;;3.10;91.80;99299.00;2961234;80;21052;-79
2021/11/30 00:57:46;;;;;;;10.30;9.15;;;;;;;3.02;92.26;99306.53;2961012;80;21373;-79
2021/11/30 01:01:48;;;;;;;11.78;8.25;;;;;;;3.08;91.45;99312.71;2961012;80;21016;-82
2021/11/30 01:05:49;;;;;;;13.98;10.03;;;;;;;3.06;91.02;99305.86;2961174;80;21061;-81
2021/11/30 01:09:51;;;;;;;11.63;7.47;;;;;;;3.02;90.18;99320.98;2960958;80;22276;-79
2021/11/30 01:13:53;;;;;;;12.82;6.90;;;;;;;3.00;90.24;99309.27;2960913;80;21020;-80
2021/11/30 01:17:55;;;;;;;11.78;7.83;;;;;;;2.98;90.13;99318.19;2961283;80;21037;-78
2021/11/30 01:21:57;;;;;;;10.20;6.60;;;;;;;3.02;90.34;99322.78;2961317;80;21083;-82
2021/11/30 01:26:01;;;;;;;13.70;7.97;;;;;;;3.05;90.59;99330.45;2961263;80;21064;-81
2021/11/30 01:30:09;;;;;;;8.75;7.80;;;;;;;3.06;90.11;99321.63;2960848;80;21020;-80
2021/11/30 01:34:10;;;;;;;12.55;8.18;;;;;;;3.09;90.23;99324.91;2961016;80;21016;-80
2021/11/30 01:38:14;;;;;;;12.73;10.08;;;;;;;3.18;90.46;99316.02;2960870;80;21029;-79
2021/11/30 01:42:16;;;;;;;13.03;9.33;;;;;;;3.18;90.37;99310.31;2960904;80;21004;-79
2021/11/30 01:50:20;;;;;;;10.38;8.03;;;;;;;3.17;90.78;99308.63;2960934;80;21084;-79
2021/11/30 01:54:22;;;;;;;14.07;9.63;;;;;;;3.21;91.06;99314.05;2961194;80;21013;-81
2021/11/30 01:58:23;;;;;;;13.75;9.28;;;;;;;3.16;91.32;99308.72;2961103;80;21047;-75
2021/11/30 02:02:25;;;;;;;14.73;10.58;;;;;;;3.29;91.13;99311.73;2961442;80;21056;-80
2021/11/30 02:06:27;;;;;;;12.03;8.60;;;;;;;3.40;90.97;99305.75;2961734;80;21028;-76
2021/11/30 02:10:29;;;;;;;13.48;11.03;;;;;;;3.40;90.78;99300.98;2961643;80;20985;-80
2021/11/30 02:14:32;;;;;;;12.85;9.05;;;;;;;3.43;90.48;99292.39;2961689;80;21087;-81
2021/11/30 02:18:40;;;;;;;11.40;8.20;;;;;;;3.38;90.56;99297.62;2961384;80;21055;-80
2021/11/30 02:22:38;;;;;;;15.68;10.93;;;;;;;3.43;90.42;99287.13;2960337;80;21524;-80
2021/11/30 02:26:42;;;;;;;15.48;10.78;;;;;;;3.46;90.51;99285.27;2961653;80;21032;-81
2021/11/30 02:30:43;;;;;;;15.32;11.22;;;;;;;3.40;90.51;99283.89;2961634;80;21036;-81
2021/11/30 02:34:45;;;;;;;15.13;10.15;;;;;;;3.41;90.72;99281.62;2961734;80;21016;-78
2021/11/30 02:38:47;;;;;;;10.45;8.63;;;;;;;3.53;91.03;99283.40;2961912;80;21024;-79
2021/11/30 02:42:48;;;;;;;11.45;9.10;;;;;;;3.64;90.73;99273.94;2961716;80;21008;-79
2021/11/30 02:46:54;;;;;;;11.75;9.93;;;;;;;3.79;90.54;99272.88;2962078;80;21059;-80
2021/11/30 02:50:59;;;;;;;13.93;8.65;;;;;;;3.94;90.30;99272.77;2962666;80;20993;-81
2021/11/30 02:55:00;;;;;;;12.93;8.45;;;;;;;3.95;89.56;99272.63;2962164;80;21020;-80
2021/11/30 02:59:03;;;;;;;11.65;9.25;;;;;;;3.89;89.55;99257.75;2962216;80;21056;-79
2021/11/30 03:03:05;;;;;;;15.40;8.85;;;;;;;3.85;89.89;99254.52;2962350;80;21012;-76
2021/11/30 03:07:14;;;;;;;14.70;10.15;;;;;;;3.80;89.99;99250.88;2962211;80;21063;-79
2021/11/30 03:11:15;;;;;;;15.72;10.45;;;;;;;3.81;90.15;99255.66;2962501;80;21036;-81
2021/11/30 03:15:24;;;;;;;15.00;9.45;;;;;;;3.78;89.80;99255.41;2963591;80;20973;-75
2021/11/30 03:19:27;;;;;;;10.35;7.85;;;;;;;3.76;89.52;99258.62;2963664;80;21032;-75
2021/11/30 03:23:29;;;;;;;11.15;7.67;;;;;;;3.67;90.20;99261.89;2963102;80;20981;-79
2021/11/30 03:27:30;;;;;;;14.05;8.88;;;;;;;3.65;90.48;99264.64;2960564;80;21355;-76
2021/11/30 03:35:46;;;;;;;9.10;7.03;;;;;;;3.56;89.66;99256.91;2963352;80;21028;-73
2021/11/30 03:39:48;;;;;;;12.85;8.80;;;;;;;3.53;89.58;99264.98;2963749;80;21047;-74
2021/11/30 03:43:50;;;;;;;9.45;7.90;;;;;;;3.53;89.72;99262.36;2963902;80;21414;-72
2021/11/30 03:47:52;;;;;;;12.07;8.40;;;;;;;3.51;89.83;99255.05;2963732;80;21036;-75
2021/11/30 03:51:54;;;;;;;9.68;7.85;;;;;;;3.43;90.14;99249.01;2966661;80;21528;-72
2021/11/30 03:55:56;;;;;;;9.35;6.28;;;;;;;3.42;90.38;99243.38;2971477;80;21012;-75
2021/11/30 03:59:58;;;;;;;9.70;7.47;;;;;;;3.35;90.77;99241.31;2969857;80;21079;-75
2021/11/30 04:04:01;;;;;;;13.25;8.08;;;;;;;3.25;91.31;99234.53;2972105;80;21059;-69
2021/11/30 04:08:03;;;;;;;13.20;9.13;;;;;;;3.23;91.78;99231.13;2971685;80;21094;-78
2021/11/30 04:12:07;;;;;;;9.60;7.05;;;;;;;3.25;91.97;99227.95;2971481;80;21032;-75
2021/11/30 04:16:09;;;;;;;12.80;8.60;;;;;;;3.26;92.05;99223.89;2972057;80;20981;-75
2021/11/30 04:20:12;;;;;;;8.48;7.65;;;;;;;3.29;91.96;99221.05;2971328;80;20996;-78
2021/11/30 04:24:14;;;;;;;13.40;10.00;;;;;;;3.26;91.81;99218.63;2968321;80;21012;-77
2021/11/30 04:28:16;;;;;;;10.75;8.30;;;;;;;3.21;92.01;99210.69;2968421;80;21598;-77
2021/11/30 04:32:17;;;;;;;10.80;8.23;;;;;;;3.20;92.37;99203.30;2968153;80;21059;-78
2021/11/30 04:36:19;;;;;;;11.12;9.45;;;;;;;3.13;92.52;99197.61;2968114;80;21004;-76
2021/11/30 04:40:22;;;;;;;12.65;8.63;;;;;;;3.13;92.65;99199.38;2968191;80;21083;-76
2021/11/30 04:44:26;;;;;;;10.40;7.37;;;;;;;3.11;92.70;99198.19;2968648;80;21330;-73
2021/11/30 04:48:28;;;;;;;14.45;9.30;;;;;;;3.16;92.55;99195.26;2968676;80;21032;-76
2021/11/30 04:52:31;;;;;;;10.75;7.17;;;;;;;3.18;92.38;99190.73;2964043;80;21564;-75
2021/11/30 04:56:33;;;;;;;11.80;7.53;;;;;;;3.19;92.29;99184.53;2959630;80;21667;-75
2021/11/30 05:00:36;;;;;;;12.65;9.93;;;;;;;3.34;91.60;99177.36;2959464;80;21024;-76
2021/11/30 05:04:39;;;;;;;12.30;8.88;;;;;;;3.38;91.40;99169.63;2960030;80;21100;-73
2021/11/30 05:08:41;;;;;;;13.72;11.28;;;;;;;3.37;90.87;99158.74;2959729;80;21080;-75
2021/11/30 05:12:42;;;;;;;14.85;11.60;;;;;;;3.29;89.99;99154.51;2958051;80;21071;-74
2021/11/30 05:16:44;;;;;;;19.27;14.03;;;;;;;3.20;90.46;99152.05;2958798;80;21036;-75
2021/11/30 05:20:47;;;;;;;21.75;15.15;;;;;;;3.15;90.67;99152.84;2959413;80;21564;-73
2021/11/30 05:24:49;;;;;;;18.75;14.33;;;;;;;3.14;90.84;99151.13;2960661;80;21016;-74
2021/11/30 05:28:52;;;;;;;21.93;14.73;;;;;;;3.13;90.71;99142.42;2960087;80;21056;-75
2021/11/30 05:32:54;;;;;;;18.37;12.10;;;;;;;3.11;90.36;99130.33;2960376;80;21087;-74
2021/11/30 05:36:56;;;;;;;19.73;13.45;;;;;;;3.09;89.41;99129.14;2960648;79;21028;-74
2021/11/30 05:40:58;;;;;;;18.98;14.70;;;;;;;3.01;89.41;99119.62;2959976;80;21008;-76
2021/11/30 05:44:59;;;;;;;19.00;13.55;;;;;;;2.98;89.36;99108.02;2959925;80;21012;-75
2021/11/30 05:49:03;;;;;;;15.48;12.15;;;;;;;2.88;89.51;99101.23;2958794;80;21052;-76
2021/11/30 05:53:04;;;;;;;15.05;11.18;;;;;;;2.82;89.97;99089.85;2958268;80;21067;-75
2021/11/30 05:57:10;;;;;;;19.40;13.90;;;;;;;2.88;90.15;99089.42;2958268;80;21663;-75
2021/11/30 06:01:14;;;;;;;21.07;14.65;;;;;;;2.85;90.35;99087.86;2958015;80;21048;-75
2021/11/30 06:05:14;;;;;;;16.52;11.60;;;;;;;2.88;90.46;99080.72;2957693;80;21100;-76
2021/11/30 06:09:15;;;;;;;14.45;10.63;;;;;;;2.88;90.15;99073.66;2958359;80;21048;-76
2021/11/30 06:13:17;;;;;;;14.93;11.18;;;;;;;2.93;89.61;99068.92;2958434;80;21001;-76
2021/11/30 06:17:19;;;;;;;14.18;10.45;;;;;;;3.00;89.39;99080.70;2958543;80;21024;-75
2021/11/30 06:21:22;;;;;;;14.38;11.25;;;;;;;2.97;88.49;99074.81;2958750;80;21044;-76
2021/11/30 06:25:23;;;;;;;15.88;11.10;;;;;;;3.04;87.73;99067.34;2958865;80;21080;-77
2021/11/30 06:29:25;;;;;;;17.48;12.65;;;;;;;3.03;87.62;99057.78;2959174;80;21079;-77
2021/11/30 06:33:26;;;;;;;16.15;10.65;;;;;;;3.06;87.20;99049.68;2958837;80;21091;-79
2021/11/30 06:37:28;;;;;;;15.28;9.75;;;;;;;3.00;86.61;99048.31;2958774;80;20996;-76
2021/11/30 06:41:30;;;;;;;15.53;8.90;;;;;;;3.05;86.12;99044.06;2959849;80;21040;-73
2021/11/30 06:45:32;;;;;;;12.73;9.23;;;;;;;3.07;85.28;99031.19;2960078;80;21068;-78
2021/11/30 06:49:34;;;;;;;12.55;8.98;;;;;;;3.11;85.01;99021.28;2959954;80;21628;-77
2021/11/30 06:53:36;;;;;;;14.53;7.90;;;;;;;3.10;84.00;99013.03;2959067;80;21080;-79
2021/11/30 06:57:37;;;;;;;7.85;5.90;;;;;;;3.14;83.52;99006.14;2960067;80;21009;-79
2021/11/30 07:01:40;;;;;;;9.83;6.42;;;;;;;3.12;82.33;98995.37;2958996;80;21060;-77
2021/11/30 07:05:43;;;;;;;10.82;6.80;;;;;;;3.21;82.05;98994.72;2959310;80;21016;-77
2021/11/30 07:09:58;;;;;;;7.83;5.22;;;;;;;3.22;81.65;98980.63;2959883;80;21019;-78
2021/11/30 07:13:51;;;;;;;9.40;5.40;;;;;;;3.28;81.20;98977.55;2958717;80;20997;-80
2021/11/30 07:17:53;;;;;;;6.45;4.72;;;;;;;3.32;80.62;98978.63;2961032;80;21080;-79
2021/11/30 07:21:55;;;;;;;7.47;4.72;;;;;;;3.36;80.42;98979.63;2960541;80;21012;-79
2021/11/30 07:25:57;;;;;;;6.25;4.15;;;;;;;3.46;79.87;98972.39;2960560;80;21573;-79
2021/11/30 07:29:59;;;;;;;5.30;3.65;;;;;;;3.50;79.87;98955.44;2960183;80;21015;-78
2021/11/30 07:34:01;;;;;;;7.83;3.67;;;;;;;3.52;79.03;98953.03;2959833;80;21028;-76
2021/11/30 07:38:03;;;;;;;7.55;5.10;;;;;;;3.61;79.59;98942.31;2959818;80;21059;-79
2021/11/30 07:42:06;;;;;;;8.15;5.45;;;;;;;3.73;79.36;98937.92;2959794;80;21036;-76
2021/11/30 07:46:08;;;;;;;5.90;4.05;;;;;;;3.78;78.91;98929.70;2959866;80;21278;-77
2021/11/30 07:50:11;;;;;;;9.25;5.12;;;;;;;3.77;78.12;98922.30;2960336;79;21000;-77
2021/11/30 07:54:14;;;;;;;5.42;4.85;;;;;;;3.79;78.67;98912.49;2967006;80;21027;-76
2021/11/30 07:58:16;;;;;;;5.90;4.92;;;;;;;3.78;77.36;98900.76;2970548;80;21055;-78
2021/11/30 08:02:18;;;;;;;5.45;3.50;;;;;;;3.78;76.86;98890.23;2970851;80;21059;-77
2021/11/30 08:06:19;;;;;;;5.35;4.08;;;;;;;3.79;76.68;98887.97;2970881;80;21044;-76
2021/11/30 08:10:25;;;;;;;5.03;3.67;;;;;;;3.88;76.99;98880.70;2971184;80;21052;-76
2021/11/30 08:14:25;;;;;;;6.10;5.00;;;;;;;3.89;76.89;98878.89;2971246;80;20977;-77
2021/11/30 08:18:27;;;;;;;4.45;3.40;;;;;;;3.91;77.15;98869.09;2971473;80;21016;-78
2021/11/30 08:22:29;;;;;;;6.90;4.10;;;;;;;3.89;77.48;98863.11;2971514;80;21055;-77
2021/11/30 08:26:31;;;;;;;4.97;3.77;;;;;;;3.90;79.04;98851.17;2971403;80;20993;-76
2021/11/30 08:30:33;;;;;;;10.70;3.50;;;;;;;3.89;79.57;98848.64;2971378;80;21024;-79
2021/11/30 08:34:36;;;;;;;6.67;5.75;;;;;;;3.83;80.18;98834.16;2970956;80;21016;-77
2021/11/30 08:38:37;;;;;;;7.40;3.87;;;;;;;3.82;80.44;98821.97;2971239;80;21706;-79
2021/11/30 08:42:40;;;;;;;5.65;3.90;;;;;;;3.82;80.80;98808.81;2970505;80;21048;-77
2021/11/30 08:46:42;;;;;;;5.85;3.92;;;;;;;3.84;80.50;98806.93;2971014;80;21044;-78
2021/11/30 08:50:43;;;;;;;4.25;3.00;;;;;;;3.90;80.09;98796.38;2971143;80;20973;-77
2021/11/30 08:54:47;;;;;;;4.05;3.15;;;;;;;4.06;79.88;98790.77;2963501;80;21012;-78
2021/11/30 08:58:52;;;;;;;4.03;3.05;;;;;;;4.10;80.00;98777.23;2961476;80;21040;-77
2021/11/30 09:02:54;;;;;;;3.30;2.55;;;;;;;4.26;79.70;98762.86;2961847;80;21032;-77
2021/11/30 09:06:56;;;;;;;4.20;2.87;;;;;;;4.37;79.36;98740.93;2961659;80;21016;-75
2021/11/30 09:10:58;;;;;;;5.45;3.35;;;;;;;4.47;78.87;98729.17;2961852;80;21036;-78
2021/11/30 09:15:00;;;;;;;4.25;3.67;;;;;;;4.62;78.23;98708.17;2961765;80;20973;-78
2021/11/30 09:19:04;;;;;;;4.08;2.72;;;;;;;4.68;77.73;98698.44;2961912;80;21612;-78
2021/11/30 09:23:06;;;;;;;3.98;3.27;;;;;;;4.75;77.60;98693.50;2962271;80;21568;-76
2021/11/30 09:27:08;;;;;;;6.22;4.45;;;;;;;4.79;76.89;98674.33;2962421;80;20985;-76
2021/11/30 09:31:10;;;;;;;4.58;3.00;;;;;;;4.91;76.52;98658.78;2962394;80;21631;-76
2021/11/30 09:35:18;;;;;;;7.03;4.78;;;;;;;5.04;76.24;98640.16;2962363;80;21084;-73
2021/11/30 09:39:21;;;;;;;4.60;3.85;;;;;;;4.98;75.19;98615.63;2962188;80;21043;-78
2021/11/30 09:43:23;;;;;;;4.80;3.72;;;;;;;5.01;75.47;98602.18;2962511;80;21040;-75
2021/11/30 09:47:25;;;;;;;4.50;4.10;;;;;;;5.00;74.43;98592.14;2962367;80;21071;-79
2021/11/30 09:51:27;;;;;;;8.08;4.67;;;;;;;5.06;74.52;98584.20;2962556;80;20961;-76
2021/11/30 09:55:28;;;;;;;8.10;4.87;;;;;;;5.04;74.39;98562.41;2962167;80;20996;-78
2021/11/30 09:59:30;;;;;;;5.37;4.55;;;;;;;5.09;75.44;98551.45;2962523;80;21553;-76
2021/11/30 10:03:32;;;;;;;5.17;4.53;;;;;;;5.08;76.13;98540.09;2962507;80;21048;-77
2021/11/30 10:07:50;;;;;;;5.28;4.08;;;;;;;5.03;75.22;98525.64;2962754;80;22322;-78
2021/11/30 10:12:01;;;;;;;6.15;3.58;;;;;;;5.05;75.63;98511.37;2962843;80;21048;-78
2021/11/30 10:16:07;;;;;;;7.10;5.25;;;;;;;5.05;76.36;98491.60;2961599;80;21036;-76
2021/11/30 10:20:12;;;;;;;4.45;4.05;;;;;;;5.09;77.22;98484.23;2962764;80;21006;-74
2021/11/30 10:24:19;;;;;;;7.70;5.22;;;;;;;5.09;77.55;98467.11;2972143;79;21035;-77
2021/11/30 10:28:28;;;;;;;5.78;3.92;;;;;;;5.11;77.92;98444.08;2972214;80;21000;-78
2021/11/30 10:32:43;;;;;;;4.58;3.67;;;;;;;5.20;77.79;98435.37;2971149;80;21012;-77
2021/11/30 10:36:47;;;;;;;5.75;4.05;;;;;;;5.24;77.62;98425.39;2971664;80;21071;-76
2021/11/30 10:40:49;;;;;;;2.20;2.02;;;;;;;5.18;77.84;98410.95;2972755;80;21004;-76
2021/11/30 10:44:57;;;;;;;1.82;1.37;;;;;;;5.11;78.19;98403.23;2972180;80;21412;-77
2021/11/30 10:48:58;;;;;;;2.83;1.87;;;;;;;4.92;79.42;98386.45;2971783;80;21028;-76
2021/11/30 10:53:01;;;;;;;2.52;1.15;;;;;;;4.99;80.51;98369.11;2973124;80;21016;-77
2021/11/30 10:57:04;;;;;;;0.98;0.90;;;;;;;4.93;79.55;98350.38;2977693;80;21063;-74
2021/11/30 11:01:19;;;;;;;2.20;1.07;;;;;;;4.95;79.56;98336.11;2978118;80;21001;-74
2021/11/30 11:05:28;;;;;;;2.72;1.05;;;;;;;4.98;79.52;98320.48;2977522;80;21027;-77
2021/11/30 11:09:50;;;;;;;1.15;0.88;;;;;;;4.98;79.51;98315.22;2969809;80;21052;-77
2021/11/30 11:13:53;;;;;;;0.90;0.70;;;;;;;4.98;79.16;98291.03;2977525;80;21032;-75
2021/11/30 11:17:55;;;;;;;0.47;0.40;;;;;;;4.97;79.83;98280.15;2978147;80;20969;-77
2021/11/30 11:21:57;;;;;;;2.40;1.20;;;;;;;5.00;80.58;98260.10;2978478;80;21000;-72
2021/11/30 11:25:59;;;;;;;1.82;1.02;;;;;;;4.99;81.21;98267.66;2978393;80;21024;-76
2021/11/30 11:30:02;;;;;;;1.45;0.75;;;;;;;5.06;80.98;98253.91;2978231;80;21540;-77
2021/11/30 11:34:06;;;;;;;0.40;0.35;;;;;;;4.99;80.46;98247.90;2978391;80;21036;-74
2021/11/30 11:38:11;;;;;;;0.90;0.42;;;;;;;5.08;81.61;98246.70;2978410;80;21000;-73
2021/11/30 11:42:14;;;;;;;1.30;0.35;;;;;;;5.16;82.61;98238.94;2978786;80;20996;-70
2021/11/30 11:46:19;;;;;;;0.57;0.40;;;;;;;5.20;81.57;98220.53;2978971;80;21000;-73
2021/11/30 11:50:20;;;;;;;1.17;0.62;;;;;;;5.21;81.70;98205.53;2978984;80;21004;-78
2021/11/30 11:54:31;;;;;;;1.65;0.60;;;;;;;5.29;82.08;98201.21;2976439;80;21071;-75
2021/11/30 11:58:34;;;;;;;0.65;0.50;;;;;;;5.26;82.25;98164.59;2973646;80;21365;-73
2021/11/30 12:02:41;;;;;;;0.72;0.47;;;;;;;5.40;83.04;98176.98;2974341;80;21099;-72
2021/11/30 12:07:01;;;;;;;2.45;0.75;;;;;;;5.48;82.94;98178.39;2970601;80;21017;-75
2021/11/30 12:11:11;;;;;;;1.70;0.95;;;;;;;5.45;82.59;98142.27;2974208;80;21040;-71
2021/11/30 12:15:08;;;;;;;0.30;0.30;;;;;;;5.43;82.11;98149.84;2972587;80;21644;-74
2021/11/30 12:19:25;;;;;;;0.78;0.40;;;;;;;5.51;82.94;98139.05;2974177;80;21028;-73
2021/11/30 12:23:36;;;;;;;4.03;1.07;;;;;;;5.47;83.19;98129.77;2971637;80;20992;-77
2021/11/30 12:27:40;;;;;;;0.65;0.42;;;;;;;5.48;83.93;98126.97;2972851;80;21036;-72
2021/11/30 12:31:42;;;;;;;1.02;0.53;;;;;;;5.50;84.14;98127.68;2973688;80;20993;-75
2021/11/30 12:35:55;;;;;;;0.45;0.45;;;;;;;5.44;84.61;98120.34;2973568;80;21076;-75
2021/11/30 12:40:06;;;;;;;0.60;0.60;;;;;;;5.37;86.25;98124.55;2973880;80;21017;-74
2021/11/30 12:44:16;;;;;;;0.78;0.57;;;;;;;5.24;86.74;98097.20;2974143;80;21059;-75
2021/11/30 12:48:35;;;;;;;0.78;0.50;;;;;;;5.15;88.14;98098.90;2973901;80;21000;-72
2021/11/30 12:52:43;;;;;;;2.50;0.93;;;;;;;5.11;88.85;98086.48;2974161;80;21044;-74
2021/11/30 12:56:52;;;;;;;0.70;0.70;;;;;;;5.12;88.66;98100.52;2978754;80;21040;-73
2021/11/30 13:01:15;;;;;;;2.52;0.50;;;;;;;5.11;88.79;98094.87;2979222;80;21067;-76
2021/11/30 13:05:25;;;;;;;1.05;0.75;;;;;;;5.11;88.74;98100.98;2978936;80;21012;-74
2021/11/30 13:09:45;;;;;;;1.02;0.78;;;;;;;5.09;88.36;98093.72;2978762;80;21489;-72
2021/11/30 13:13:52;;;;;;;0.65;0.40;;;;;;;5.07;88.42;98085.59;2978959;80;20989;-72
2021/11/30 13:17:55;;;;;;;1.52;0.78;;;;;;;5.10;88.51;98087.94;2975748;80;20996;-76
2021/11/30 13:21:58;;;;;;;1.75;1.17;;;;;;;5.09;88.81;98092.39;2978983;80;21004;-76
2021/11/30 13:26:00;;;;;;;0.60;0.60;;;;;;;5.09;88.50;98075.27;2978882;80;21039;-73
2021/11/30 13:30:10;;;;;;;1.17;0.95;;;;;;;5.14;89.00;98099.88;2978649;80;21107;-71
2021/11/30 13:34:15;;;;;;;2.05;0.93;;;;;;;5.08;88.77;98091.21;2979016;80;21040;-73
2021/11/30 13:38:31;;;;;;;1.25;1.12;;;;;;;5.13;89.36;98095.58;2979032;80;21265;-74
2021/11/30 13:42:49;;;;;;;1.22;0.75;;;;;;;5.16;89.81;98096.61;2979140;80;21047;-71
2021/11/30 13:46:51;;;;;;;3.37;1.20;;;;;;;5.16;89.29;98080.80;2979245;80;21074;-73
2021/11/30 13:50:55;;;;;;;1.32;1.02;;;;;;;5.18;89.20;98064.34;2979165;80;21004;-75
2021/11/30 13:55:02;;;;;;;4.28;1.52;;;;;;;5.24;88.85;98075.61;2976637;80;20997;-76
2021/11/30 14:03:06;;;;;;;2.55;1.77;;;;;;;5.32;89.66;98064.84;2974265;80;21067;-73
2021/11/30 14:07:08;;;;;;;3.33;1.45;;;;;;;5.30;89.34;98051.80;2974004;80;21024;-73
2021/11/30 14:11:14;;;;;;;1.35;1.25;;;;;;;5.37;89.81;98091.59;2974219;80;21094;-74
2021/11/30 14:15:16;;;;;;;0.80;0.70;;;;;;;5.33;90.45;98069.95;2974378;80;21004;-76
2021/11/30 14:19:18;;;;;;;1.40;1.12;;;;;;;5.33;90.50;98061.22;2939296;80;21093;-72
2021/11/30 14:23:20;;;;;;;0.90;0.88;;;;;;;5.43;90.69;98056.71;2910221;81;21065;-73
2021/11/30 14:27:26;;;;;;;3.30;1.60;;;;;;;5.47;89.95;98058.06;2912638;81;20979;-66
2021/11/30 14:32:09;;;;;;;2.58;1.17;;;;;;;5.48;89.92;98038.62;2913345;81;20990;-69
2021/11/30 14:36:15;;;;;;;1.12;1.02;;;;;;;5.53;89.21;98034.23;2942461;78;21689;-69
2021/11/30 14:40:27;;;;;;;1.32;1.17;;;;;;;5.55;88.89;98041.03;2955818;80;21724;-72
2021/11/30 14:44:32;;;;;;;1.70;1.40;;;;;;;5.60;88.94;98054.25;2961495;80;21023;-77
2021/11/30 14:48:43;;;;;;;1.67;1.17;;;;;;;5.58;88.26;98030.18;2959799;80;21003;-77
2021/11/30 14:52:49;;;;;;;2.02;1.47;;;;;;;5.61;88.54;98037.45;2965205;80;21042;-78
2021/11/30 14:56:53;;;;;;;;;;;;;;;5.60;88.96;98023.92;2968298;80;21046;-78
2021/11/30 15:01:06;;;;;;;2.95;1.40;;;;;;;5.58;88.81;98028.86;2964982;80;20150;-78
2021/11/30 15:05:18;;;;;;;1.47;1.37;;;;;;;5.66;88.77;98026.80;2965338;80;21085;-82
2021/11/30 15:09:30;;;;;;;2.17;1.50;;;;;;;5.68;89.51;98036.70;2964221;80;21003;-76
2021/11/30 15:13:56;;;;;;;2.42;1.60;;;;;;;5.70;89.11;98023.38;2963068;80;21067;-75
2021/11/30 15:18:16;;;;;;;3.00;1.65;;;;;;;5.79;89.39;98036.13;2965479;80;20999;-76
2021/11/30 15:22:24;;;;;;;3.37;1.55;;;;;;;5.81;89.97;98054.80;2963461;80;21038;-79
2021/11/30 15:26:33;;;;;;;3.70;1.98;;;;;;;5.82;89.87;98055.13;2964927;80;21050;-78
2021/11/30 15:30:32;;;;;;;3.72;2.20;;;;;;;5.87;89.81;98050.73;2971756;79;20989;-75
2021/11/30 15:34:35;;;;;;;2.90;1.95;;;;;;;5.88;89.59;98057.67;2982448;79;21066;-72
2021/11/30 15:38:38;;;;;;;5.08;1.70;;;;;;;5.99;89.33;98049.53;2918881;80;21133;-75
2021/11/30 15:42:40;;;;;;;3.65;2.22;;;;;;;6.05;89.21;98040.19;2903473;81;21015;-78
2021/11/30 15:46:43;;;;;;;3.45;1.98;;;;;;;6.09;89.23;98051.28;2921277;80;21598;-76
2021/11/30 15:50:45;;;;;;;2.90;2.70;;;;;;;6.09;89.30;98037.61;2932218;80;20990;-72
2021/11/30 15:54:49;;;;;;;2.87;2.25;;;;;;;6.16;89.63;98043.08;2950599;80;21029;-75
2021/11/30 15:58:50;;;;;;;1.82;1.62;;;;;;;6.14;89.30;98041.93;2959542;80;21053;-72
2021/11/30 16:02:52;;;;;;;5.10;3.50;;;;;;;6.11;89.20;98023.77;2958960;80;21648;-77
2021/11/30 16:06:55;;;;;;;2.67;1.90;;;;;;;6.13;89.79;98042.07;2959927;80;21002;-79
2021/11/30 16:10:57;;;;;;;2.02;1.60;;;;;;;6.11;90.00;98053.28;2959474;80;20989;-74
2021/11/30 16:14:58;;;;;;;5.87;1.87;;;;;;;6.06;90.58;98069.56;2960009;80;20974;-76
2021/11/30 16:19:00;;;;;;;2.80;1.82;;;;;;;6.05;91.95;98063.95;2960657;80;21013;-73
2021/11/30 16:23:02;;;;;;;4.17;1.87;;;;;;;5.94;92.21;98068.93;2937193;80;21010;-75
2021/11/30 16:27:06;;;;;;;3.30;1.90;;;;;;;5.76;93.78;98087.41;2935902;81;21031;-75
2021/11/30 16:31:10;;;;;;;3.58;1.70;;;;;;;5.72;94.82;98081.59;2935852;81;20986;-77
2021/11/30 16:35:12;;;;;;;3.25;2.60;;;;;;;5.72;93.34;98096.60;2934837;80;21065;-77
2021/11/30 16:39:21;;;;;;;2.58;1.05;;;;;;;5.63;90.67;98064.50;2960591;80;21030;-76
2021/11/30 16:43:23;;;;;;;2.15;1.10;;;;;;;5.66;90.71;98096.70;2960515;80;21029;-75
2021/11/30 16:47:25;;;;;;;2.35;1.50;;;;;;;5.68;89.81;98125.08;2959702;80;21066;-74
2021/11/30 16:51:27;;;;;;;4.28;2.42;;;;;;;5.79;89.10;98108.20;2969745;80;20974;-69
2021/11/30 16:55:29;;;;;;;2.87;1.87;;;;;;;5.76;88.80;98124.81;2975942;80;21014;-80
2021/11/30 16:59:31;;;;;;;6.37;2.70;;;;;;;5.71;87.17;98085.70;2975315;80;20982;-79
2021/11/30 17:03:32;;;;;;;7.08;3.58;;;;;;;5.76;87.51;98102.39;2975807;80;20982;-77
2021/11/30 17:07:34;;;;;;;3.95;1.82;;;;;;;5.79;86.19;98092.38;2976926;80;21041;-76
2021/11/30 17:11:37;;;;;;;5.20;2.65;;;;;;;5.77;85.82;98102.25;2977267;80;21038;-71
2021/11/30 17:15:39;;;;;;;6.95;2.33;;;;;;;5.86;84.99;98095.25;2977115;80;21002;-74
2021/11/30 17:19:41;;;;;;;8.65;2.15;;;;;;;5.94;84.60;98101.10;2971611;80;21041;-72
2021/11/30 17:23:53;;;;;;;12.15;3.35;;;;;;;5.96;83.91;98084.62;2922273;81;21598;-72
2021/11/30 17:27:55;;;;;;;3.90;1.95;;;;;;;5.98;83.78;98124.38;2921710;81;21085;-78
2021/11/30 17:32:00;;;;;;;5.42;2.70;;;;;;;5.85;83.54;98126.07;2921867;81;21018;-76
2021/11/30 17:36:01;;;;;;;7.35;2.67;;;;;;;5.94;83.85;98120.89;2921233;81;21058;-76
2021/11/30 17:40:05;;;;;;;7.42;3.10;;;;;;;5.94;84.25;98127.49;2968864;79;21064;-78
2021/11/30 17:44:07;;;;;;;15.20;2.72;;;;;;;5.99;84.34;98134.47;2971945;79;21535;-75
2021/11/30 17:48:08;;;;;;;4.22;1.87;;;;;;;5.92;84.38;98142.65;2950760;79;21014;-73
2021/11/30 17:52:12;;;;;;;5.03;3.15;;;;;;;5.95;84.16;98133.92;2976250;79;20967;-78
2021/11/30 17:56:14;;;;;;;3.30;2.37;;;;;;;5.92;84.52;98136.86;2976423;80;20990;-75
2021/11/30 18:00:18;;;;;;;12.53;2.77;;;;;;;5.84;85.20;98146.84;2976136;79;21041;-75
2021/11/30 18:04:20;;;;;;;9.40;3.87;;;;;;;5.76;85.12;98149.87;2975853;79;21004;-71
2021/11/30 18:08:22;;;;;;;6.08;2.33;;;;;;;5.59;85.82;98158.91;2976290;79;21065;-73
2021/11/30 18:12:23;;;;;;;11.83;3.50;;;;;;;5.48;85.48;98146.75;2976004;80;20982;-79
2021/11/30 18:16:26;;;;;;;6.00;2.90;;;;;;;5.52;85.87;98158.69;2976110;79;20974;-74
2021/11/30 18:20:27;;;;;;;11.40;3.50;;;;;;;5.49;85.22;98176.59;2976505;79;21021;-76
2021/11/30 18:24:29;;;;;;;12.13;3.47;;;;;;;5.55;84.81;98184.77;2934240;79;21471;-77
2021/11/30 18:28:35;;;;;;;6.62;2.85;;;;;;;5.56;83.83;98185.58;2921798;81;21046;-75
2021/11/30 18:32:35;;;;;;;11.65;2.58;;;;;;;5.48;83.55;98202.13;2921590;81;21021;-76
2021/11/30 18:36:36;;;;;;;11.83;3.35;;;;;;;5.53;83.31;98168.73;2921866;81;21538;-74
2021/11/30 18:40:39;;;;;;;10.72;3.33;;;;;;;5.54;83.29;98210.80;2923216;81;20991;-68
2021/11/30 18:44:40;;;;;;;6.42;3.47;;;;;;;5.55;82.56;98212.94;2923775;81;21061;-67
2021/11/30 18:48:42;;;;;;;7.55;2.77;;;;;;;5.53;83.17;98236.83;2923436;81;21054;-68
2021/11/30 18:52:46;;;;;;;14.47;4.28;;;;;;;5.50;82.54;98246.83;2923404;81;23368;-69
2021/11/30 18:56:50;;;;;;;12.98;2.92;;;;;;;5.51;82.53;98288.05;2922762;81;21264;-73
2021/11/30 19:00:51;;;;;;;6.12;3.12;;;;;;;5.55;82.26;98245.90;2922637;81;21054;-74
2021/11/30 19:04:53;;;;;;;6.53;1.87;;;;;;;5.68;81.95;98265.36;2922997;81;21081;-71
2021/11/30 19:08:56;;;;;;;10.15;3.08;;;;;;;5.69;81.90;98264.38;2922536;81;21042;-75
2021/11/30 19:12:58;;;;;;;8.48;2.80;;;;;;;5.72;82.22;98272.03;2923038;81;20998;-72
2021/11/30 19:17:01;;;;;;;6.05;2.58;;;;;;;5.81;81.71;98271.15;2923302;81;21094;-73
2021/11/30 19:21:03;;;;;;;7.42;3.40;;;;;;;5.93;80.97;98248.04;2923065;81;21046;-70
2021/11/30 19:25:08;;;;;;;3.47;2.58;;;;;;;5.96;81.15;98274.64;2973273;80;21018;-75